Airfield :
LOGIN :

Register | Disclaimer

   EN    FR    IT 

 










Legend :    VFR   Marginal VFR   IFR   Intensive IFR   Very Intensive IFR
Visi :
Ceiling :
>= 8 km
>= 3000ft
5 to 8 km
1000 to 3000 ft
1500m to 5 km
500 to 1000 ft
800 to 1500m
200 to 500 ft
< 800m
< 200 ft
Symbols :   Thunderstorms  Fog  Heavy snow  Heavy precipitations  Wind > 20 kt
SIGMETs :     Misc.  Thunderstorms  Icing  Turbulence  Mountain Waves  Volcanic Ashes






- Airport Elevation : 1682 ft
- IATA code : VIT


LEVT - Vitoria Gasteiz

CURRENT METAR :
  • 170600Z 30001KT 9000 FEW022 SCT040 M04/M04 Q1034

EXPIRED METARs :
  • 170530Z 00000KT 9000 FEW050 M04/M04 Q1034
  • 170500Z 00000KT 9000 FEW050 M04/M04 Q1034
  • 170430Z 00000KT 9000 NSC M04/M04 Q1034
  • 170400Z 16001KT 9000 NSC M04/M04 Q1034

TAF TAF LEVT
Valid from the 17 at 06:00 until the 18 at 06:00 UTC


170500Z 1706/1806 02006KT CAVOK TX08/1715Z TNM05/1707Z
PROB30
TEMPO 1706/1708 3000 BR BCFG BKN005
PROB30
TEMPO 1804/1806 0800 FZFG BKN002



MET'MAP, your aeronautical weather chart ! - Copyright ORBIFLY December 2007 - Disclaimer

ORBIFLY MET'MAP TEAM :

Programming & Development : Alexandra Zaïnal
Concept & original design : Baudouin d'Aumeries
Assistance for programming : Marc-Olivier Méhu
Technical & hardware support : Manuel Goepfert

Contact : metmap@orbifly.com




SOURCES & CREDITS :

   NOAA